Time;durP1;ratioP1;P1;durP2;ratioP2;P2;SDS_P1;SDS_P2;PMS_P1;PMS_P2;Temp;Humidity;BMP_temperature;BMP_pressure;BME280_temperature;BME280_humidity;BME280_pressure;Samples;Min_cycle;Max_cycle;Signal;HPM_P1;HPM_P2
2022/02/25 00:01:14;;;;;;;10.60;5.90;;;2.00;99.90;;;;;;5034200;28;20036;-72
2022/02/25 00:03:40;;;;;;;12.95;6.25;;;2.00;99.90;;;;;;5034260;28;20095;-73
2022/02/25 00:06:06;;;;;;;13.27;6.57;;;2.00;99.90;;;;;;5035368;28;20048;-72
2022/02/25 00:08:33;;;;;;;13.27;7.65;;;2.00;99.90;;;;;;5033997;28;20066;-72
2022/02/25 00:10:58;;;;;;;14.20;7.00;;;2.00;99.90;;;;;;5034133;28;20052;-72
2022/02/25 00:13:24;;;;;;;14.63;7.80;;;2.00;99.90;;;;;;5033852;28;20518;-72
2022/02/25 00:15:49;;;;;;;13.70;7.95;;;2.00;99.90;;;;;;5035148;28;20395;-72
2022/02/25 00:18:15;;;;;;;12.55;7.45;;;2.00;99.90;;;;;;5033949;28;20021;-73
2022/02/25 00:20:41;;;;;;;14.05;7.68;;;2.10;99.90;;;;;;5035004;28;20360;-72
2022/02/25 00:23:06;;;;;;;17.80;7.95;;;2.20;99.90;;;;;;5033813;28;20036;-72
2022/02/25 00:25:32;;;;;;;13.32;7.30;;;2.20;99.90;;;;;;5017193;28;20025;-73
2022/02/25 00:27:57;;;;;;;13.18;8.05;;;2.30;99.90;;;;;;5033692;28;20078;-72
2022/02/25 00:30:23;;;;;;;13.27;7.22;;;2.30;99.90;;;;;;5033745;28;20025;-72
2022/02/25 00:32:48;;;;;;;15.15;7.72;;;2.40;99.90;;;;;;5034739;28;20026;-73
2022/02/25 00:35:14;;;;;;;16.40;7.78;;;2.40;99.90;;;;;;5033580;28;20033;-72
2022/02/25 00:37:39;;;;;;;11.57;6.78;;;2.40;99.90;;;;;;5033550;28;20369;-72
2022/02/25 00:40:06;;;;;;;12.88;6.93;;;2.40;99.90;;;;;;5034735;28;20017;-71
2022/02/25 00:42:32;;;;;;;11.65;6.43;;;2.40;99.90;;;;;;5034593;28;20032;-72
2022/02/25 00:44:58;;;;;;;11.25;6.57;;;2.30;99.90;;;;;;5016945;28;20032;-72
2022/02/25 00:47:23;;;;;;;16.00;6.50;;;2.30;99.90;;;;;;5016873;28;20120;-72
2022/02/25 00:49:49;;;;;;;11.75;6.70;;;2.20;99.90;;;;;;5033219;28;20025;-72
2022/02/25 00:52:14;;;;;;;13.10;6.88;;;2.30;99.90;;;;;;5016637;28;20100;-73
2022/02/25 00:54:40;;;;;;;15.35;7.03;;;2.20;99.90;;;;;;5016651;28;20060;-72
2022/02/25 00:57:07;;;;;;;13.38;6.15;;;2.20;99.90;;;;;;5032402;28;20026;-72
2022/02/25 00:59:33;;;;;;;16.92;6.80;;;2.20;99.90;;;;;;5016719;28;20108;-72
2022/02/25 01:01:58;;;;;;;19.35;6.95;;;2.20;99.90;;;;;;5034285;28;20026;-73
2022/02/25 01:04:24;;;;;;;21.50;6.60;;;2.20;99.90;;;;;;5032990;28;20391;-72
2022/02/25 01:06:49;;;;;;;11.32;5.95;;;2.10;99.90;;;;;;5033021;28;20030;-72
2022/02/25 01:09:15;;;;;;;13.77;7.28;;;2.10;99.90;;;;;;5034087;28;20075;-72
2022/02/25 01:11:40;;;;;;;17.02;6.38;;;2.10;99.90;;;;;;5016230;28;20554;-72
2022/02/25 01:14:07;;;;;;;10.57;5.93;;;2.10;99.90;;;;;;5032854;28;20022;-73
2022/02/25 01:16:33;;;;;;;18.35;6.75;;;2.10;99.90;;;;;;5016333;28;20052;-72
2022/02/25 01:18:58;;;;;;;16.13;6.70;;;2.10;99.90;;;;;;5032720;28;20495;-72
2022/02/25 01:21:24;;;;;;;11.95;6.47;;;2.20;99.90;;;;;;5032808;28;20029;-72
2022/02/25 01:23:49;;;;;;;13.05;6.22;;;2.20;99.90;;;;;;5033850;28;20030;-72
2022/02/25 01:26:15;;;;;;;16.25;5.95;;;2.20;99.90;;;;;;5033819;28;20104;-73
2022/02/25 01:28:41;;;;;;;12.55;6.32;;;2.20;99.90;;;;;;5033779;28;20041;-73
2022/02/25 01:31:06;;;;;;;11.55;5.43;;;2.20;99.90;;;;;;5033698;28;20025;-72
2022/02/25 01:33:32;;;;;;;15.18;6.60;;;2.20;99.90;;;;;;5033707;28;20021;-72
2022/02/25 01:35:58;;;;;;;9.98;5.95;;;2.20;99.90;;;;;;5032374;28;20044;-73
2022/02/25 01:38:23;;;;;;;14.30;5.82;;;2.20;99.90;;;;;;5032581;28;20483;-73
2022/02/25 01:40:52;;;;;;;18.63;6.35;;;2.30;99.90;;;;;;5033537;28;20028;-73
2022/02/25 01:43:17;;;;;;;16.27;5.60;;;2.20;99.90;;;;;;5016230;28;20391;-72
2022/02/25 01:45:43;;;;;;;18.88;6.40;;;2.20;99.90;;;;;;5033533;28;20029;-72
2022/02/25 01:48:08;;;;;;;13.65;5.65;;;2.30;99.90;;;;;;5015802;28;20092;-72
2022/02/25 01:50:35;;;;;;;21.85;5.97;;;2.30;99.90;;;;;;5033483;28;20061;-72
2022/02/25 01:53:05;;;;;;;13.00;5.68;;;2.30;99.90;;;;;;5033450;28;20122;-72
2022/02/25 01:55:32;;;;;;;10.38;5.40;;;2.30;99.90;;;;;;5016003;28;20021;-72
2022/02/25 01:57:58;;;;;;;15.10;4.85;;;2.30;99.90;;;;;;5032059;28;20390;-72
2022/02/25 02:00:24;;;;;;;14.88;5.22;;;2.30;99.90;;;;;;5032040;28;20021;-72
2022/02/25 02:02:50;;;;;;;9.15;5.03;;;2.30;99.90;;;;;;5033269;28;20025;-72
2022/02/25 02:05:16;;;;;;;12.35;5.18;;;2.40;99.90;;;;;;5015623;28;20064;-72
2022/02/25 02:07:42;;;;;;;11.48;5.00;;;2.40;99.90;;;;;;5033057;28;20044;-72
2022/02/25 02:10:08;;;;;;;15.25;5.13;;;2.30;99.90;;;;;;5033166;28;20061;-72
2022/02/25 02:12:34;;;;;;;11.98;5.13;;;2.30;99.90;;;;;;5031769;28;20076;-72
2022/02/25 02:15:00;;;;;;;11.00;5.45;;;2.30;99.90;;;;;;5032017;28;20543;-73
2022/02/25 02:17:25;;;;;;;13.55;4.85;;;2.20;99.90;;;;;;5033175;28;20035;-73
2022/02/25 02:19:51;;;;;;;10.02;4.95;;;2.30;99.90;;;;;;5015557;28;20021;-73
2022/02/25 02:22:22;;;;;;;13.00;4.97;;;2.20;99.90;;;;;;5031788;28;20048;-72
2022/02/25 02:24:48;;;;;;;10.73;4.60;;;2.20;99.90;;;;;;5033058;28;20439;-72
2022/02/25 02:27:13;;;;;;;11.88;5.15;;;2.20;99.90;;;;;;5015308;28;20048;-72
2022/02/25 02:29:39;;;;;;;13.75;4.78;;;2.30;99.90;;;;;;5033016;28;20022;-72
2022/02/25 02:32:04;;;;;;;12.48;4.60;;;2.30;99.90;;;;;;5032992;28;20475;-72
2022/02/25 02:34:30;;;;;;;9.30;3.92;;;2.30;99.90;;;;;;5031911;28;20041;-72
2022/02/25 02:36:56;;;;;;;13.07;4.68;;;2.40;99.90;;;;;;5015365;28;20025;-72
2022/02/25 02:39:21;;;;;;;16.00;5.18;;;2.30;99.90;;;;;;5031669;28;20080;-73
2022/02/25 02:41:47;;;;;;;11.00;4.45;;;2.30;99.90;;;;;;5032924;28;20022;-72
2022/02/25 02:44:12;;;;;;;14.95;5.00;;;2.30;99.90;;;;;;5032886;28;20071;-72
2022/02/25 02:46:38;;;;;;;12.57;5.28;;;2.20;99.90;;;;;;5031684;28;20387;-71
2022/02/25 02:49:04;;;;;;;16.33;5.03;;;2.20;99.90;;;;;;5015232;28;20095;-71
2022/02/25 02:51:30;;;;;;;13.98;5.72;;;2.20;99.90;;;;;;5015214;28;20022;-72
2022/02/25 02:53:56;;;;;;;12.32;4.57;;;2.20;99.90;;;;;;5032780;28;20030;-71
2022/02/25 02:56:22;;;;;;;12.75;4.68;;;2.20;99.90;;;;;;5031600;28;20494;-71
2022/02/25 02:58:55;;;;;;;13.77;5.55;;;2.20;99.90;;;;;;5032742;28;20100;-71
2022/02/25 03:01:22;;;;;;;17.88;5.32;;;2.30;99.90;;;;;;5031478;28;20028;-71
2022/02/25 03:03:47;;;;;;;14.13;4.60;;;2.30;99.90;;;;;;5031436;28;20112;-71
2022/02/25 03:06:13;;;;;;;13.70;4.88;;;2.20;99.90;;;;;;5032708;28;20451;-71
2022/02/25 03:08:39;;;;;;;14.88;5.18;;;2.30;99.90;;;;;;5032696;28;20395;-71
2022/02/25 03:11:04;;;;;;;14.23;4.82;;;2.30;99.90;;;;;;5032633;28;20041;-71
2022/02/25 03:13:30;;;;;;;10.70;4.70;;;2.30;99.90;;;;;;5014717;28;20045;-71
2022/02/25 03:15:55;;;;;;;10.30;4.10;;;2.30;99.90;;;;;;5032650;28;20427;-71
2022/02/25 03:18:21;;;;;;;12.77;4.05;;;2.30;99.90;;;;;;5014900;28;20028;-71
2022/02/25 03:20:46;;;;;;;15.55;4.63;;;2.40;99.90;;;;;;5016782;28;20075;-71
2022/02/25 03:23:12;;;;;;;10.25;3.90;;;2.30;99.90;;;;;;5034872;28;20029;-71
2022/02/25 03:25:39;;;;;;;9.18;4.03;;;2.50;99.90;;;;;;5018395;28;20051;-71
2022/02/25 03:28:04;;;;;;;8.75;3.72;;;2.60;99.90;;;;;;5036083;28;20056;-71
2022/02/25 03:30:31;;;;;;;14.38;3.58;;;2.60;99.90;;;;;;5034769;28;20025;-71
2022/02/25 03:32:56;;;;;;;12.98;3.85;;;2.70;99.90;;;;;;5018198;28;20557;-71
2022/02/25 03:35:22;;;;;;;14.77;3.65;;;2.70;99.90;;;;;;5035868;28;20045;-71
2022/02/25 03:37:48;;;;;;;13.27;3.55;;;2.80;99.90;;;;;;5035752;28;20048;-71
2022/02/25 03:40:14;;;;;;;12.27;3.72;;;2.90;99.90;;;;;;5035823;28;20538;-71
2022/02/25 03:42:40;;;;;;;13.13;4.20;;;2.90;99.90;;;;;;5035781;28;20029;-71
2022/02/25 03:45:07;;;;;;;8.35;3.40;;;2.90;99.90;;;;;;5035765;28;20084;-71
2022/02/25 03:47:34;;;;;;;15.23;3.67;;;2.90;99.90;;;;;;5034414;28;20021;-72
2022/02/25 03:50:00;;;;;;;7.25;3.03;;;2.90;99.90;;;;;;5034510;28;20030;-71
2022/02/25 03:52:26;;;;;;;12.98;3.80;;;3.00;99.90;;;;;;5035574;28;20030;-72
2022/02/25 03:54:52;;;;;;;14.43;3.38;;;3.00;99.90;;;;;;5035575;28;20017;-72
2022/02/25 03:57:18;;;;;;;16.02;3.47;;;3.00;99.90;;;;;;5034255;28;20025;-71
2022/02/25 03:59:43;;;;;;;15.25;3.88;;;3.00;99.90;;;;;;5017710;28;20055;-72
2022/02/25 04:02:09;;;;;;;17.85;3.75;;;3.00;99.90;;;;;;5035418;28;20108;-72
2022/02/25 04:04:34;;;;;;;14.27;3.45;;;3.10;99.90;;;;;;5035367;28;20106;-71
2022/02/25 04:07:00;;;;;;;13.00;3.88;;;3.10;99.90;;;;;;5017615;28;20024;-71
2022/02/25 04:09:25;;;;;;;7.30;2.92;;;3.00;99.90;;;;;;5035334;28;20025;-72
2022/02/25 04:11:53;;;;;;;9.70;3.15;;;2.90;99.90;;;;;;5034957;28;20037;-72
2022/02/25 04:14:19;;;;;;;14.55;3.40;;;2.90;99.90;;;;;;5033929;28;20029;-72
2022/02/25 04:16:46;;;;;;;14.60;3.67;;;2.80;99.90;;;;;;5017404;28;20029;-72
2022/02/25 04:19:12;;;;;;;15.15;2.78;;;2.70;99.90;;;;;;5033881;28;20018;-72
2022/02/25 04:21:38;;;;;;;14.38;2.90;;;2.70;99.90;;;;;;5017308;28;20030;-72
2022/02/25 04:24:04;;;;;;;6.32;2.50;;;2.60;99.90;;;;;;5017348;28;20029;-72
2022/02/25 04:26:30;;;;;;;12.93;3.10;;;2.60;99.90;;;;;;5035004;28;20032;-72
2022/02/25 04:28:56;;;;;;;8.52;4.00;;;2.60;99.90;;;;;;5033693;28;20574;-72
2022/02/25 04:31:21;;;;;;;8.85;2.67;;;2.70;99.90;;;;;;5017230;28;20030;-72
2022/02/25 04:33:47;;;;;;;10.70;3.00;;;2.70;99.90;;;;;;5033492;28;20061;-72
2022/02/25 04:36:13;;;;;;;8.82;2.72;;;2.70;99.90;;;;;;5033613;28;20052;-72
2022/02/25 04:38:38;;;;;;;11.00;2.97;;;2.60;99.90;;;;;;5034800;28;20025;-72
2022/02/25 04:41:04;;;;;;;13.98;3.40;;;2.60;99.90;;;;;;5034724;28;20479;-72
2022/02/25 04:43:30;;;;;;;17.15;3.05;;;2.60;99.90;;;;;;5016976;28;20542;-72
2022/02/25 04:45:56;;;;;;;12.88;3.35;;;2.50;99.90;;;;;;5034730;28;20048;-72
2022/02/25 04:48:22;;;;;;;11.77;3.17;;;2.50;99.90;;;;;;5033267;28;20037;-72
2022/02/25 04:50:48;;;;;;;12.13;2.92;;;2.50;99.90;;;;;;5016946;28;20029;-72
2022/02/25 04:53:13;;;;;;;9.40;2.95;;;2.50;99.90;;;;;;5033312;28;20104;-72
2022/02/25 04:55:39;;;;;;;10.25;3.45;;;2.60;99.90;;;;;;5033182;28;20028;-72
2022/02/25 04:58:04;;;;;;;15.68;3.05;;;2.50;99.90;;;;;;5034427;28;20033;-72
2022/02/25 05:00:30;;;;;;;10.48;2.53;;;2.60;99.90;;;;;;5033184;28;20044;-71
2022/02/25 05:02:55;;;;;;;17.73;2.78;;;2.50;99.90;;;;;;5016570;28;20029;-72
2022/02/25 05:05:21;;;;;;;13.30;2.92;;;2.50;99.90;;;;;;5016537;28;20065;-72
2022/02/25 05:07:47;;;;;;;14.85;2.88;;;2.50;99.90;;;;;;5032928;28;20475;-72
2022/02/25 05:10:12;;;;;;;17.00;3.30;;;2.60;99.90;;;;;;5034205;28;20026;-72
2022/02/25 05:12:39;;;;;;;7.10;2.67;;;2.60;99.90;;;;;;5033825;28;20128;-73
2022/02/25 05:20:36;;;;;;;10.65;2.92;;;2.50;99.90;;;;;;5032800;28;20045;-71
2022/02/25 05:23:03;;;;;;;10.30;2.67;;;2.50;99.90;;;;;;5032594;28;20064;-72
2022/02/25 05:25:30;;;;;;;14.38;3.20;;;2.50;99.90;;;;;;5033935;28;20021;-73
2022/02/25 05:27:56;;;;;;;9.70;2.47;;;2.60;99.90;;;;;;5032564;28;20060;-72
2022/02/25 05:30:23;;;;;;;15.02;2.88;;;2.60;99.90;;;;;;5032545;28;20449;-71
2022/02/25 05:32:49;;;;;;;8.43;2.58;;;2.60;99.90;;;;;;5032393;28;20034;-71
2022/02/25 05:35:15;;;;;;;13.00;3.25;;;2.60;99.90;;;;;;5016016;28;20505;-72
2022/02/25 05:37:43;;;;;;;17.27;3.22;;;2.60;99.90;;;;;;5032673;28;20041;-72
2022/02/25 05:40:10;;;;;;;15.02;3.35;;;2.60;99.90;;;;;;5033676;28;20052;-72
2022/02/25 05:42:38;;;;;;;14.77;2.95;;;2.60;99.90;;;;;;5032045;28;20392;-71
2022/02/25 05:45:04;;;;;;;14.52;3.55;;;2.60;99.90;;;;;;5033589;28;20104;-72
2022/02/25 05:47:30;;;;;;;19.15;3.65;;;2.60;99.90;;;;;;5015883;28;20112;-71
2022/02/25 05:49:55;;;;;;;12.20;2.63;;;2.60;99.90;;;;;;5033617;28;20455;-72
2022/02/25 05:52:21;;;;;;;14.43;3.28;;;2.60;99.90;;;;;;5032156;28;20068;-72
2022/02/25 05:54:47;;;;;;;11.30;3.42;;;2.60;99.90;;;;;;5015650;28;20454;-72
2022/02/25 05:57:14;;;;;;;14.77;3.15;;;2.60;99.90;;;;;;5033422;28;20018;-72
2022/02/25 05:59:40;;;;;;;19.38;3.17;;;2.60;99.90;;;;;;5032211;28;20049;-72
2022/02/25 06:02:06;;;;;;;13.57;3.15;;;2.60;99.90;;;;;;5015585;28;20447;-72
2022/02/25 06:04:31;;;;;;;13.63;3.10;;;2.60;99.90;;;;;;5032153;28;20485;-71
2022/02/25 06:06:57;;;;;;;18.75;3.55;;;2.60;99.90;;;;;;5033247;28;20101;-73
2022/02/25 06:09:22;;;;;;;11.57;2.53;;;2.60;99.90;;;;;;5015560;28;20025;-72
2022/02/25 06:11:48;;;;;;;14.25;3.03;;;2.60;99.90;;;;;;5031677;28;20060;-72
2022/02/25 06:14:13;;;;;;;11.50;2.75;;;2.60;99.90;;;;;;5031886;28;20026;-72
2022/02/25 06:16:39;;;;;;;14.35;3.25;;;2.60;99.90;;;;;;5033134;28;20557;-72
2022/02/25 06:19:04;;;;;;;13.82;3.50;;;2.60;99.90;;;;;;5031965;28;20030;-71
2022/02/25 06:21:30;;;;;;;18.52;3.20;;;2.60;99.90;;;;;;5033209;28;20156;-72
2022/02/25 06:23:56;;;;;;;13.50;3.47;;;2.60;99.90;;;;;;5033181;28;20030;-72
2022/02/25 06:26:21;;;;;;;14.85;3.22;;;2.60;99.90;;;;;;5033041;28;20025;-72
2022/02/25 06:28:47;;;;;;;17.65;3.45;;;2.60;99.90;;;;;;5031862;28;20095;-72
2022/02/25 06:31:13;;;;;;;18.38;3.55;;;2.60;99.90;;;;;;5031736;28;20483;-73
2022/02/25 06:33:38;;;;;;;13.88;3.13;;;2.60;99.90;;;;;;5015311;28;20482;-72
2022/02/25 06:36:04;;;;;;;12.02;3.28;;;2.60;99.90;;;;;;5033069;28;20032;-73
2022/02/25 06:38:30;;;;;;;19.02;3.85;;;2.70;99.90;;;;;;5033031;28;20017;-72
2022/02/25 06:40:55;;;;;;;14.52;3.25;;;2.70;99.90;;;;;;5032906;28;20029;-71
2022/02/25 06:43:21;;;;;;;15.00;3.20;;;2.70;99.90;;;;;;5015109;28;20017;-73
2022/02/25 06:45:47;;;;;;;17.20;3.30;;;2.80;99.90;;;;;;5031584;28;20021;-72
2022/02/25 06:48:12;;;;;;;19.90;3.90;;;2.90;99.90;;;;;;5031598;28;20083;-72
2022/02/25 06:50:38;;;;;;;18.75;4.28;;;3.00;99.90;;;;;;5015177;28;20056;-73
2022/02/25 06:53:03;;;;;;;20.52;4.63;;;3.10;99.90;;;;;;5015015;28;20021;-71
2022/02/25 06:55:29;;;;;;;18.70;3.28;;;3.20;99.90;;;;;;5034420;28;20014;-71
2022/02/25 06:57:55;;;;;;;22.08;4.07;;;3.20;99.90;;;;;;5036617;28;20039;-72
2022/02/25 07:00:21;;;;;;;21.77;4.35;;;3.20;99.90;;;;;;5035439;28;20021;-72
2022/02/25 07:02:50;;;;;;;22.08;3.95;;;3.20;99.90;;;;;;5018849;28;20022;-71
2022/02/25 07:05:16;;;;;;;16.17;3.42;;;3.20;99.90;;;;;;5018568;28;20036;-72
2022/02/25 07:07:41;;;;;;;23.05;3.83;;;3.20;99.90;;;;;;5034847;28;20071;-71
2022/02/25 07:10:07;;;;;;;25.80;3.95;;;3.30;99.90;;;;;;5034921;28;20060;-73
2022/02/25 07:12:33;;;;;;;26.08;4.30;;;3.30;99.90;;;;;;5034738;28;20115;-72
2022/02/25 07:14:59;;;;;;;16.65;3.90;;;3.30;99.90;;;;;;5035123;28;20049;-72
2022/02/25 07:17:25;;;;;;;18.25;3.58;;;3.50;99.90;;;;;;5035077;28;20100;-72
2022/02/25 07:19:50;;;;;;;22.80;3.70;;;3.70;99.90;;;;;;5034975;28;20541;-72
2022/02/25 07:22:16;;;;;;;20.13;3.53;;;4.10;99.90;;;;;;5018275;28;20028;-72
2022/02/25 07:24:41;;;;;;;25.10;3.92;;;4.20;99.90;;;;;;5051544;28;20021;-72
2022/02/25 07:27:07;;;;;;;20.25;3.88;;;4.10;99.90;;;;;;5051369;28;20434;-73
2022/02/25 07:29:33;;;;;;;20.20;4.28;;;4.10;99.90;;;;;;5051453;28;20032;-72
2022/02/25 07:31:59;;;;;;;18.38;3.70;;;4.70;99.90;;;;;;5034520;28;20021;-72
2022/02/25 07:34:26;;;;;;;11.85;3.28;;;5.10;99.90;;;;;;5050387;28;20060;-73
2022/02/25 07:36:52;;;;;;;15.07;3.20;;;5.40;99.90;;;;;;5035621;28;20098;-72
2022/02/25 07:39:17;;;;;;;18.33;3.78;;;5.80;99.90;;;;;;5034501;28;20029;-73
2022/02/25 07:41:43;;;;;;;18.20;4.00;;;5.90;99.90;;;;;;5034968;28;20471;-73
2022/02/25 07:44:09;;;;;;;16.65;3.92;;;5.70;99.90;;;;;;5036108;28;20489;-72
2022/02/25 07:46:34;;;;;;;19.60;3.40;;;5.30;99.90;;;;;;5041045;28;20029;-72
2022/02/25 07:49:00;;;;;;;20.17;4.07;;;5.20;99.90;;;;;;5016528;28;20033;-72
2022/02/25 07:51:27;;;;;;;17.98;3.83;;;4.70;99.90;;;;;;5035419;28;20029;-72
2022/02/25 07:53:55;;;;;;;18.35;4.28;;;4.70;99.90;;;;;;5036965;28;20520;-72
2022/02/25 07:56:21;;;;;;;20.65;5.35;;;5.00;99.90;;;;;;5055376;28;20025;-73
2022/02/25 07:58:47;;;;;;;16.50;3.53;;;5.30;99.90;;;;;;5041822;28;20030;-73
2022/02/25 08:01:13;;;;;;;12.98;3.75;;;5.20;99.90;;;;;;5019363;28;20029;-73
2022/02/25 08:03:40;;;;;;;17.90;3.75;;;5.10;99.90;;;;;;5056440;28;20030;-72
2022/02/25 08:06:05;;;;;;;18.77;4.35;;;4.70;99.90;;;;;;5039999;28;20029;-73
2022/02/25 08:08:31;;;;;;;13.27;3.85;;;4.50;99.90;;;;;;5043214;28;20450;-73
2022/02/25 08:10:56;;;;;;;21.15;3.72;;;4.40;99.90;;;;;;5036569;28;20472;-72
2022/02/25 08:13:22;;;;;;;12.40;3.60;;;4.40;99.90;;;;;;5044801;28;20132;-72
2022/02/25 08:15:47;;;;;;;26.50;5.22;;;4.40;99.90;;;;;;5035449;28;20075;-72
2022/02/25 08:18:14;;;;;;;18.05;3.72;;;4.30;99.90;;;;;;5038993;28;20108;-72
2022/02/25 08:20:40;;;;;;;20.30;4.05;;;4.30;99.90;;;;;;5017838;28;20475;-72
2022/02/25 08:23:07;;;;;;;16.65;3.65;;;4.30;99.90;;;;;;5044476;28;20033;-72
2022/02/25 08:25:34;;;;;;;15.40;3.53;;;4.30;99.90;;;;;;5033230;28;20033;-72
2022/02/25 08:28:00;;;;;;;15.55;3.67;;;4.30;99.90;;;;;;5033676;28;20076;-72
2022/02/25 08:30:26;;;;;;;19.67;3.85;;;4.20;99.90;;;;;;5032831;28;21542;-72
2022/02/25 08:32:53;;;;;;;22.08;4.18;;;4.30;99.90;;;;;;5033364;28;20040;-74
2022/02/25 08:35:20;;;;;;;21.13;4.75;;;4.30;99.90;;;;;;5033596;28;20100;-72
2022/02/25 08:37:47;;;;;;;22.52;5.22;;;4.10;99.90;;;;;;5017509;28;20036;-73
2022/02/25 08:40:14;;;;;;;17.75;5.10;;;3.90;99.90;;;;;;5032831;28;20057;-74
2022/02/25 08:42:40;;;;;;;17.48;4.88;;;3.80;99.90;;;;;;5036216;28;20036;-72
2022/02/25 08:45:07;;;;;;;23.88;5.20;;;3.60;99.90;;;;;;5032624;28;20442;-72
2022/02/25 08:47:33;;;;;;;18.10;4.85;;;3.60;99.90;;;;;;5034673;28;20037;-72
2022/02/25 08:49:59;;;;;;;15.60;5.18;;;3.50;99.90;;;;;;5032314;28;20541;-72
2022/02/25 08:52:24;;;;;;;19.58;5.82;;;3.40;99.90;;;;;;5032460;28;20072;-72
2022/02/25 08:54:50;;;;;;;24.50;6.22;;;3.40;99.90;;;;;;5033544;28;20024;-72
2022/02/25 08:57:16;;;;;;;26.15;6.60;;;3.40;99.90;;;;;;5023599;28;20075;-72
2022/02/25 08:59:42;;;;;;;21.30;7.50;;;3.30;99.90;;;;;;5032604;28;20486;-72
2022/02/25 09:02:09;;;;;;;38.65;13.35;;;3.40;99.90;;;;;;5030689;28;20025;-73
2022/02/25 09:04:34;;;;;;;29.67;10.10;;;3.30;99.90;;;;;;5033572;28;20486;-72
2022/02/25 09:07:00;;;;;;;36.33;12.00;;;3.30;99.90;;;;;;5036159;28;20029;-72
2022/02/25 09:09:25;;;;;;;33.08;14.48;;;3.40;99.90;;;;;;5017021;28;20056;-72
2022/02/25 09:11:51;;;;;;;34.60;12.43;;;3.40;99.90;;;;;;5031845;28;20442;-72
2022/02/25 09:14:17;;;;;;;32.10;9.63;;;3.40;99.90;;;;;;5032169;28;20037;-72
2022/02/25 09:16:43;;;;;;;31.23;12.10;;;3.50;99.90;;;;;;5033346;28;20040;-71
2022/02/25 09:19:09;;;;;;;28.92;10.32;;;3.40;99.90;;;;;;5031069;28;20021;-73
2022/02/25 09:21:35;;;;;;;30.63;9.38;;;3.40;99.90;;;;;;5015633;28;20525;-72
2022/02/25 09:24:02;;;;;;;33.95;11.23;;;3.30;99.90;;;;;;5036658;28;20076;-72
2022/02/25 09:26:28;;;;;;;29.02;11.23;;;3.20;99.90;;;;;;5016948;28;20034;-72
2022/02/25 09:28:53;;;;;;;27.13;14.68;;;3.20;99.90;;;;;;5033299;28;20395;-71
2022/02/25 09:31:19;;;;;;;37.97;13.25;;;3.30;99.90;;;;;;5049119;28;20036;-72
2022/02/25 09:33:45;;;;;;;32.20;13.60;;;3.30;99.90;;;;;;5042819;28;20068;-72
2022/02/25 09:36:10;;;;;;;28.42;12.23;;;3.40;99.90;;;;;;5047891;28;20368;-72
2022/02/25 09:38:36;;;;;;;27.88;11.32;;;3.50;99.90;;;;;;5032009;28;20018;-72
2022/02/25 09:41:04;;;;;;;29.25;10.13;;;3.60;99.90;;;;;;5021171;28;20072;-72
2022/02/25 09:43:31;;;;;;;28.05;11.23;;;3.70;99.90;;;;;;5019587;28;20051;-71
2022/02/25 09:45:56;;;;;;;29.80;9.80;;;3.90;99.90;;;;;;5031513;28;20391;-72
2022/02/25 09:48:22;;;;;;;29.20;10.43;;;4.20;99.90;;;;;;5035668;28;20033;-72
2022/02/25 09:50:51;;;;;;;23.20;9.15;;;4.50;99.90;;;;;;5046699;28;20123;-72
2022/02/25 09:53:18;;;;;;;28.95;8.95;;;4.50;99.90;;;;;;5040227;28;20099;-72
2022/02/25 09:55:44;;;;;;;25.40;8.10;;;4.50;99.90;;;;;;5038409;28;20018;-73
2022/02/25 09:58:10;;;;;;;24.75;9.07;;;4.40;99.90;;;;;;5045537;28;20391;-73
2022/02/25 10:00:37;;;;;;;32.88;9.18;;;4.40;99.90;;;;;;5034292;28;20036;-72
2022/02/25 10:03:07;;;;;;;23.83;8.82;;;4.50;99.90;;;;;;5051626;28;20021;-72
2022/02/25 10:05:34;;;;;;;29.08;8.98;;;4.50;99.90;;;;;;5033333;28;20057;-72
2022/02/25 10:08:21;;;;;;;28.25;8.77;;;4.50;99.90;;;;;;5015310;28;20052;-72
2022/02/25 10:10:49;;;;;;;26.55;8.77;;;4.60;99.90;;;;;;5032983;28;20041;-72
2022/02/25 10:13:18;;;;;;;28.88;9.23;;;4.50;99.90;;;;;;5032674;28;20128;-72
2022/02/25 10:15:45;;;;;;;46.80;21.50;;;4.50;99.90;;;;;;5051654;28;20037;-72
2022/02/25 10:18:22;;;;;;;33.00;12.77;;;4.70;99.90;;;;;;5052197;28;20048;-72
2022/02/25 10:20:48;;;;;;;49.40;21.02;;;4.60;99.90;;;;;;5050890;28;20028;-72
2022/02/25 10:23:42;;;;;;;57.17;26.88;;;4.70;99.90;;;;;;5052189;28;20025;-72
2022/02/25 10:26:12;;;;;;;;;;;4.70;99.90;;;;;;5051433;28;20108;-72
2022/02/25 10:28:39;;;;;;;34.95;11.30;;;4.70;99.90;;;;;;5052979;28;19908;-72
2022/02/25 10:31:32;;;;;;;24.83;8.93;;;4.80;99.90;;;;;;5055262;28;20024;-73
2022/02/25 10:34:08;;;;;;;21.10;8.43;;;4.90;99.90;;;;;;5049201;28;20033;-73
2022/02/25 10:36:44;;;;;;;26.48;9.68;;;5.10;99.90;;;;;;5036708;28;20475;-72
2022/02/25 10:39:27;;;;;;;27.23;8.40;;;5.10;99.90;;;;;;5036841;28;20026;-72
2022/02/25 10:42:15;;;;;;;25.90;8.98;;;5.10;99.90;;;;;;5035751;28;20022;-72
2022/02/25 10:44:44;;;;;;;23.02;8.32;;;5.20;99.90;;;;;;5050320;28;20120;-72
2022/02/25 10:49:59;;;;;;;28.58;9.00;;;5.20;99.90;;;;;;5099357;27;20408;-71
2022/02/25 10:52:30;;;;;;;26.15;8.30;;;5.30;99.90;;;;;;5089578;28;20047;-71
2022/02/25 10:54:57;;;;;;;26.90;8.60;;;5.40;99.90;;;;;;5088414;28;20423;-71
2022/02/25 10:57:25;;;;;;;24.48;8.75;;;5.50;99.90;;;;;;5089190;28;20447;-71
2022/02/25 10:59:51;;;;;;;31.20;9.52;;;5.50;99.90;;;;;;5089818;28;20030;-71
2022/02/25 11:02:38;;;;;;;20.77;7.45;;;5.60;99.90;;;;;;5088814;28;20115;-70
2022/02/25 11:05:12;;;;;;;29.42;8.13;;;5.60;99.90;;;;;;5090707;28;20025;-71
2022/02/25 11:07:40;;;;;;;21.77;8.30;;;5.60;99.90;;;;;;5086792;28;20108;-71
2022/02/25 11:10:07;;;;;;;26.08;9.15;;;5.80;99.90;;;;;;5067398;28;20039;-71
2022/02/25 11:12:37;;;;;;;23.58;7.65;;;6.10;99.90;;;;;;5089283;28;20066;-71
2022/02/25 11:15:04;;;;;;;20.38;7.20;;;7.00;99.90;;;;;;5087904;28;20115;-72
2022/02/25 11:17:30;;;;;;;23.50;7.30;;;7.40;99.90;;;;;;5087100;28;20035;-72
2022/02/25 11:19:58;;;;;;;24.20;7.90;;;7.60;99.90;;;;;;5089567;28;20020;-72
2022/02/25 11:22:27;;;;;;;22.55;7.93;;;7.60;99.90;;;;;;5067813;28;20020;-71
2022/02/25 11:24:53;;;;;;;29.52;7.28;;;7.20;99.90;;;;;;5077873;28;20028;-72
2022/02/25 11:27:19;;;;;;;27.20;8.48;;;7.20;99.90;;;;;;5071448;28;20031;-72
2022/02/25 11:30:06;;;;;;;40.30;15.75;;;7.10;99.90;;;;;;5087678;28;20490;-71
2022/02/25 11:32:47;;;;;;;20.35;9.60;;;7.00;99.90;;;;;;5067927;28;20024;-71
2022/02/25 11:35:22;;;;;;;26.33;9.65;;;6.80;99.90;;;;;;5086591;28;20027;-71
2022/02/25 11:37:51;;;;;;;26.02;11.23;;;6.70;99.90;;;;;;5085899;28;20032;-71
2022/02/25 11:40:37;;;;;;;15.80;7.68;;;6.60;99.90;;;;;;5087453;28;20031;-71
2022/02/25 11:43:10;;;;;;;22.75;9.02;;;6.40;99.90;;;;;;5089156;28;20085;-71
2022/02/25 11:45:47;;;;;;;22.95;8.30;;;6.20;99.90;;;;;;5088877;28;20020;-72
2022/02/25 11:48:19;;;;;;;24.95;8.77;;;6.10;99.90;;;;;;5086680;28;20119;-71
2022/02/25 11:50:50;;;;;;;24.50;8.57;;;6.00;99.90;;;;;;5087171;28;20024;-71
2022/02/25 11:53:23;;;;;;;25.83;8.48;;;6.00;99.90;;;;;;5070550;28;20070;-72
2022/02/25 11:55:49;;;;;;;21.48;9.60;;;5.90;99.90;;;;;;5089191;28;20020;-71
2022/02/25 11:58:46;;;;;;;24.92;8.68;;;5.90;99.90;;;;;;5085763;28;20060;-72
2022/02/25 12:01:15;;;;;;;24.25;8.27;;;5.80;99.90;;;;;;5073675;28;20111;-71
2022/02/25 12:04:05;;;;;;;25.38;9.13;;;5.60;99.90;;;;;;5078430;28;20105;-72
2022/02/25 12:06:57;;;;;;;24.40;8.50;;;5.50;99.90;;;;;;5089653;28;20090;-71
2022/02/25 12:09:50;;;;;;;21.00;9.45;;;5.40;99.90;;;;;;5067734;28;20032;-71
2022/02/25 12:12:26;;;;;;;;;;;5.10;99.90;;;;;;5074336;28;20394;-71
2022/02/25 12:15:18;;;;;;;23.63;7.38;;;5.00;99.90;;;;;;5110326;27;20355;-71
2022/02/25 12:17:50;;;;;;;20.93;5.63;;;5.10;99.90;;;;;;5108487;28;20024;-71
2022/02/25 12:20:38;;;;;;;15.25;6.28;;;5.70;99.90;;;;;;5107394;28;20024;-71
2022/02/25 12:23:08;;;;;;;21.48;5.32;;;6.40;99.90;;;;;;5106602;28;20085;-71
2022/02/25 12:28:33;;;;;;;11.20;4.13;;;6.60;99.90;;;;;;5122028;27;20396;-71
2022/02/25 12:31:02;;;;;;;11.13;3.50;;;6.80;99.90;;;;;;5080367;28;20081;-71
2022/02/25 12:33:34;;;;;;;13.75;3.55;;;6.90;99.90;;;;;;5088241;28;20083;-72
2022/02/25 12:36:03;;;;;;;14.38;4.88;;;7.20;99.90;;;;;;5083813;28;20025;-71
2022/02/25 12:38:30;;;;;;;13.35;4.43;;;7.20;99.90;;;;;;5090246;28;20066;-71
2022/02/25 12:41:18;;;;;;;16.48;5.88;;;7.30;99.90;;;;;;5090221;28;20119;-71
2022/02/25 12:46:23;;;;;;;16.75;6.53;;;7.30;99.90;;;;;;5110209;27;20805;-71
2022/02/25 12:48:51;;;;;;;20.83;6.55;;;7.20;99.90;;;;;;5105072;28;20031;-71
2022/02/25 12:51:18;;;;;;;22.67;5.88;;;7.10;99.90;;;;;;5110147;28;20485;-71
2022/02/25 12:54:01;;;;;;;17.02;5.03;;;7.00;99.90;;;;;;5114474;27;20036;-71
2022/02/25 12:56:32;;;;;;;15.77;4.35;;;7.00;99.90;;;;;;5108641;28;20043;-71
2022/02/25 12:59:05;;;;;;;20.80;4.47;;;6.80;99.90;;;;;;5102638;28;20024;-72
2022/02/25 13:01:32;;;;;;;14.32;4.28;;;6.80;99.90;;;;;;5106239;28;20415;-71
2022/02/25 13:04:04;;;;;;;14.48;3.85;;;6.80;99.90;;;;;;5110468;28;20045;-72